Warning: Javascript must be enabled to use all the features on this page!


Page Loading - Please Wait...

Click to hideNews Bulletins

Peak Streamflow for the Nation

USGS 10312275 CARSON RV AT TARZYN RD NR FALLON, NV

Churchill County, Nevada
Hydrologic Unit Code 16050203
Latitude  39°33'32", Longitude 118°43'30" NAD27
Gage datum 3,920.00 feet above NGVD29
Output formats
Table
Graph
Tab-separated file
peakfq (watstore) format
Reselect output format
Water
Year
Date Gage
Height
(feet)
Stream-
flow
(cfs)
1986 1986-06-04 5.22 7536
1987 1986-10-03 2.36 1416
1988 1988-08-29 1.83 80.06
1989 1989-05-10 2.27 75.06
1990 1990-08-20 2.00 52.06
1991 1991-07-15 2.28 31.06
1992 1992-07-03 2.25 16.06
1993 1993-07-31 2.62 1166
1994 1994-07-21 2.56 1036
1995 1995-07-15 6.57 8906
1996 1996-05-27 6.11 9426
1997 1997-01-22 8.736 8216
1998 1998-05-14 8.22 6626
1999 1999-06-02 7.83 5516
2000 2000-08-05 4.33 31.06
2001 2001-09-09 4.75 49.06
2002 2002-07-15 4.99 70.06
2003 2003-07-14 5.01 72.06
2004 2004-08-14 5.24 82.06
2005 2005-07-12 5.63 1306
2006 2006-04-11 8.86 6806
2007 2007-09-11 5.04 69.06
2008 2007-12-03 5.04 73.06
2009 2009-08-06 4.572 43.06
2010 2010-07-21 5.472 76.06
2011 2011-04-14 7.70 3606
2012 2012-08-14 4.70 33.06
2013 2013-07-28 4.92 25.06
2014 2014-07-22 4.962 25.06
2015 2015-06-17 4.382 13.06
2016 2016-06-24 5.35 36.06
2017 2017-04-25 9.90 1,1106
2018 2018-04-08 9.12 7996
2019 2019-04-09 8.80 7686
2020 2020-08-01 4.09 73.96
?
  Peak Gage-Height Qualification Codes.
?
  Peak Streamflow Qualification Codes.